Terminal Aerodrome Forecast
Issued by NWS Omaha/Valley, NE

Home | Current Version | Previous Version | Text Only | Print | Product List | Glossary On
Versions: 1 2 3 4 5 6 7 8 9 10 11 12 13 14 15 16 17 18
000
FTUS43 KOAX 181734
TAFLNK
TAF
KLNK 181734Z 1818/1918 20025G44KT P6SM SCT250
     FM182200 19013KT P6SM FEW250
     FM190100 17008KT P6SM FEW250
     FM190400 12008KT P6SM BKN090
     FM190600 03008KT P6SM -DZ BKN015
     FM191200 36010KT P6SM OVC008 PROB30 1912/1918 4SM -FZDZ OVC003=

USA.gov is the U.S. government's official web portal to all federal, state and local government web resources and services.